MUNG/GER METAR and TAF weather

Enter ICAO airport designator
Station Type Date Time Source
MUNG METAR 2023/01/13 17:59 UTC NOAA

MUNG 131759Z 25009KT 9999 SCT015 28/16 Q1017


Station Type Date Time Source
MUNG Decoded METAR 2023/01/13 17:59 UTC NOAA

Nueva Gerona, Isla De Pinos, Cuba (MUNG) 21-50N 082-47W 23M
Jan 13, 2023 - 12:59 PM EST / 2023.01.13 1759 UTC
Wind: from the WSW (250 degrees) at 10 MPH (9 KT):0
Visibility: greater than 7 mile(s):0
Sky conditions: partly cloudy
Temperature: 82 F (28 C)
Dew Point: 60 F (16 C)
Relative Humidity: 48%
Pressure (altimeter): 30.03 in. Hg (1017 hPa)
ob: MUNG 131759Z 25009KT 9999 SCT015 28/16 Q1017
cycle: 18

Station Type Date Time Source
MUNG TAF 2022/12/20 18:00 UTC NOAA

MUNG 201700Z 2018/2106 12008KT 9000 SCT020
BECMG 2022/2024 VRB03KT

Example: see airport list